Terminal Aerodrome Forecast
Issued by NWS

Home | Current Version | Previous Version | Graphics & Text | Print | Product List | Glossary On
Versions: 1 2 3 4 5 6 7 8 9 10 11 12 13 14 15 16 17 18 19 20 21 22 23 24 25 26 27 28 29 30 31 32 33 34 35 36 37
000
FTUS43 KGRB 281727
TAFRHI
TAF
KRHI 281727Z 2818/2918 23009KT P6SM SCT015 OVC080
      TEMPO 2818/2821 BKN015
     FM282100 22009KT P6SM SCT015 OVC080
     FM290100 19004KT P6SM SCT008 OVC050
      TEMPO 2901/2905 5SM -SHRA BR BKN008
     FM290500 VRB03KT 3SM BR SCT002 OVC006
      TEMPO 2909/2913 1SM BR BKN002
     FM291500 19003KT 5SM BR OVC015=

USA.gov is the U.S. government's official web portal to all federal, state and local government web resources and services.